sensor_id;sensor_type;location;lat;lon;timestamp;pressure;altitude;pressure_sealevel;temperature;humidity
56330;BME280;42236;48.058;10.632;2024-01-30T00:01:10;96031.63;;;-0.12;89.72
56330;BME280;42236;48.058;10.632;2024-01-30T00:03:56;96024.13;;;-0.15;91.10
56330;BME280;42236;48.058;10.632;2024-01-30T00:06:43;96036.34;;;-0.14;91.02
56330;BME280;42236;48.058;10.632;2024-01-30T00:09:28;96028.97;;;-0.12;90.51
56330;BME280;42236;48.058;10.632;2024-01-30T00:12:14;96035.88;;;-0.11;90.42
56330;BME280;42236;48.058;10.632;2024-01-30T00:15:00;96033.72;;;-0.14;91.01
56330;BME280;42236;48.058;10.632;2024-01-30T00:17:46;96039.38;;;-0.22;91.94
56330;BME280;42236;48.058;10.632;2024-01-30T00:20:31;96036.63;;;-0.27;92.09
56330;BME280;42236;48.058;10.632;2024-01-30T00:23:17;96027.31;;;-0.30;92.34
56330;BME280;42236;48.058;10.632;2024-01-30T00:26:03;96030.75;;;-0.29;91.58
56330;BME280;42236;48.058;10.632;2024-01-30T00:28:48;96035.03;;;-0.28;91.73
56330;BME280;42236;48.058;10.632;2024-01-30T00:31:35;96021.22;;;-0.30;93.70
56330;BME280;42236;48.058;10.632;2024-01-30T00:34:20;96030.44;;;-0.33;93.83
56330;BME280;42236;48.058;10.632;2024-01-30T00:37:06;96028.34;;;-0.31;92.84
56330;BME280;42236;48.058;10.632;2024-01-30T00:39:52;96030.22;;;-0.31;94.00
56330;BME280;42236;48.058;10.632;2024-01-30T00:42:38;96037.13;;;-0.30;92.78
56330;BME280;42236;48.058;10.632;2024-01-30T00:45:23;96040.00;;;-0.32;92.72
56330;BME280;42236;48.058;10.632;2024-01-30T00:48:09;96038.88;;;-0.36;93.31
56330;BME280;42236;48.058;10.632;2024-01-30T00:50:55;96042.56;;;-0.37;92.13
56330;BME280;42236;48.058;10.632;2024-01-30T00:53:41;96040.69;;;-0.36;92.83
56330;BME280;42236;48.058;10.632;2024-01-30T00:56:30;96031.16;;;-0.37;92.77
56330;BME280;42236;48.058;10.632;2024-01-30T00:59:16;96036.94;;;-0.40;93.79
56330;BME280;42236;48.058;10.632;2024-01-30T01:02:02;96028.28;;;-0.36;92.26
56330;BME280;42236;48.058;10.632;2024-01-30T01:04:47;96036.78;;;-0.34;92.81
56330;BME280;42236;48.058;10.632;2024-01-30T01:07:33;96038.38;;;-0.33;92.55
56330;BME280;42236;48.058;10.632;2024-01-30T01:10:19;96042.31;;;-0.35;92.57
56330;BME280;42236;48.058;10.632;2024-01-30T01:13:05;96038.53;;;-0.39;93.38
56330;BME280;42236;48.058;10.632;2024-01-30T01:15:50;96040.59;;;-0.41;93.33
56330;BME280;42236;48.058;10.632;2024-01-30T01:18:36;96045.47;;;-0.38;93.80
56330;BME280;42236;48.058;10.632;2024-01-30T01:21:22;96051.88;;;-0.34;93.25
56330;BME280;42236;48.058;10.632;2024-01-30T01:24:08;96051.41;;;-0.31;92.88
56330;BME280;42236;48.058;10.632;2024-01-30T01:26:54;96053.03;;;-0.30;93.02
56330;BME280;42236;48.058;10.632;2024-01-30T01:29:39;96048.28;;;-0.28;93.17
56330;BME280;42236;48.058;10.632;2024-01-30T01:32:25;96054.63;;;-0.29;93.35
56330;BME280;42236;48.058;10.632;2024-01-30T01:35:11;96046.13;;;-0.31;93.18
56330;BME280;42236;48.058;10.632;2024-01-30T01:37:57;96047.41;;;-0.34;93.07
56330;BME280;42236;48.058;10.632;2024-01-30T01:40:45;96055.34;;;-0.34;92.93
56330;BME280;42236;48.058;10.632;2024-01-30T01:43:31;96047.06;;;-0.37;93.07
56330;BME280;42236;48.058;10.632;2024-01-30T01:46:17;96047.53;;;-0.40;92.74
56330;BME280;42236;48.058;10.632;2024-01-30T01:49:05;96042.13;;;-0.46;93.03
56330;BME280;42236;48.058;10.632;2024-01-30T01:51:51;96042.03;;;-0.51;93.50
56330;BME280;42236;48.058;10.632;2024-01-30T01:54:39;96042.03;;;-0.51;93.28
56330;BME280;42236;48.058;10.632;2024-01-30T01:57:25;96044.13;;;-0.53;93.16
56330;BME280;42236;48.058;10.632;2024-01-30T02:00:11;96043.19;;;-0.58;93.57
56330;BME280;42236;48.058;10.632;2024-01-30T02:02:58;96042.28;;;-0.64;93.48
56330;BME280;42236;48.058;10.632;2024-01-30T02:05:45;96040.56;;;-0.70;94.32
56330;BME280;42236;48.058;10.632;2024-01-30T02:08:31;96043.47;;;-0.72;94.43
56330;BME280;42236;48.058;10.632;2024-01-30T02:11:18;96045.31;;;-0.72;93.61
56330;BME280;42236;48.058;10.632;2024-01-30T02:14:04;96041.50;;;-0.76;94.22
56330;BME280;42236;48.058;10.632;2024-01-30T02:16:50;96039.66;;;-0.76;94.19
56330;BME280;42236;48.058;10.632;2024-01-30T02:19:36;96043.81;;;-0.80;93.82
56330;BME280;42236;48.058;10.632;2024-01-30T02:22:22;96044.06;;;-0.81;94.11
56330;BME280;42236;48.058;10.632;2024-01-30T02:25:09;96044.63;;;-0.79;93.79
56330;BME280;42236;48.058;10.632;2024-01-30T02:27:54;96041.28;;;-0.75;93.70
56330;BME280;42236;48.058;10.632;2024-01-30T02:30:42;96043.47;;;-0.72;92.83
56330;BME280;42236;48.058;10.632;2024-01-30T02:33:28;96039.44;;;-0.74;93.85
56330;BME280;42236;48.058;10.632;2024-01-30T02:36:14;96038.88;;;-0.76;94.72
56330;BME280;42236;48.058;10.632;2024-01-30T02:39:01;96034.38;;;-0.76;94.22
56330;BME280;42236;48.058;10.632;2024-01-30T02:41:46;96040.47;;;-0.75;93.80
56330;BME280;42236;48.058;10.632;2024-01-30T02:44:32;96035.16;;;-0.75;93.82
56330;BME280;42236;48.058;10.632;2024-01-30T02:47:18;96031.97;;;-0.77;93.72
56330;BME280;42236;48.058;10.632;2024-01-30T02:50:04;96033.22;;;-0.80;94.21
56330;BME280;42236;48.058;10.632;2024-01-30T02:52:52;96030.81;;;-0.81;94.21
56330;BME280;42236;48.058;10.632;2024-01-30T02:55:38;96024.47;;;-0.80;93.96
56330;BME280;42236;48.058;10.632;2024-01-30T02:58:23;96031.41;;;-0.79;94.14
56330;BME280;42236;48.058;10.632;2024-01-30T03:01:09;96024.72;;;-0.82;95.25
56330;BME280;42236;48.058;10.632;2024-01-30T03:03:55;96019.41;;;-0.82;94.21
56330;BME280;42236;48.058;10.632;2024-01-30T03:06:45;96027.13;;;-0.80;94.76
56330;BME280;42236;48.058;10.632;2024-01-30T03:09:31;96022.88;;;-0.81;94.76
56330;BME280;42236;48.058;10.632;2024-01-30T03:12:17;96015.94;;;-0.82;94.52
56330;BME280;42236;48.058;10.632;2024-01-30T03:15:03;96018.38;;;-0.81;94.84
56330;BME280;42236;48.058;10.632;2024-01-30T03:17:49;96019.16;;;-0.80;94.79
56330;BME280;42236;48.058;10.632;2024-01-30T03:20:35;96012.84;;;-0.79;94.28
56330;BME280;42236;48.058;10.632;2024-01-30T03:23:20;96011.56;;;-0.77;94.80
56330;BME280;42236;48.058;10.632;2024-01-30T03:26:06;96009.81;;;-0.71;94.13
56330;BME280;42236;48.058;10.632;2024-01-30T03:28:52;96010.97;;;-0.67;93.57
56330;BME280;42236;48.058;10.632;2024-01-30T03:31:39;96005.19;;;-0.64;93.50
56330;BME280;42236;48.058;10.632;2024-01-30T03:34:25;96010.00;;;-0.61;93.45
56330;BME280;42236;48.058;10.632;2024-01-30T03:37:10;96012.44;;;-0.59;93.09
56330;BME280;42236;48.058;10.632;2024-01-30T03:39:56;96010.81;;;-0.60;92.84
56330;BME280;42236;48.058;10.632;2024-01-30T03:42:42;96003.34;;;-0.63;92.79
56330;BME280;42236;48.058;10.632;2024-01-30T03:45:28;96005.09;;;-0.69;93.50
56330;BME280;42236;48.058;10.632;2024-01-30T03:48:14;96001.28;;;-0.73;94.07
56330;BME280;42236;48.058;10.632;2024-01-30T03:50:59;96003.94;;;-0.73;94.05
56330;BME280;42236;48.058;10.632;2024-01-30T03:53:46;96005.00;;;-0.74;93.59
56330;BME280;42236;48.058;10.632;2024-01-30T03:56:32;96009.94;;;-0.78;93.98
56330;BME280;42236;48.058;10.632;2024-01-30T03:59:18;96009.94;;;-0.78;93.77
56330;BME280;42236;48.058;10.632;2024-01-30T04:02:10;96008.34;;;-0.79;94.18
56330;BME280;42236;48.058;10.632;2024-01-30T04:04:56;96006.50;;;-0.78;93.89
56330;BME280;42236;48.058;10.632;2024-01-30T04:07:42;96007.66;;;-0.74;94.15
56330;BME280;42236;48.058;10.632;2024-01-30T04:10:28;96005.00;;;-0.74;93.90
56330;BME280;42236;48.058;10.632;2024-01-30T04:13:13;96010.31;;;-0.74;94.09
56330;BME280;42236;48.058;10.632;2024-01-30T04:16:00;96006.59;;;-0.73;94.31
56330;BME280;42236;48.058;10.632;2024-01-30T04:18:49;96007.66;;;-0.74;94.08
56330;BME280;42236;48.058;10.632;2024-01-30T04:21:35;96005.00;;;-0.74;94.25
56330;BME280;42236;48.058;10.632;2024-01-30T04:24:20;96002.09;;;-0.73;93.92
56330;BME280;42236;48.058;10.632;2024-01-30T04:27:06;96005.31;;;-0.71;93.97
56330;BME280;42236;48.058;10.632;2024-01-30T04:29:52;96011.41;;;-0.70;93.91
56330;BME280;42236;48.058;10.632;2024-01-30T04:32:38;96011.19;;;-0.69;93.53
56330;BME280;42236;48.058;10.632;2024-01-30T04:35:24;96016.50;;;-0.69;93.48
56330;BME280;42236;48.058;10.632;2024-01-30T04:38:10;96014.91;;;-0.70;93.67
56330;BME280;42236;48.058;10.632;2024-01-30T04:40:56;96019.38;;;-0.70;93.80
56330;BME280;42236;48.058;10.632;2024-01-30T04:43:42;96013.03;;;-0.69;93.76
56330;BME280;42236;48.058;10.632;2024-01-30T04:46:28;96008.78;;;-0.70;93.72
56330;BME280;42236;48.058;10.632;2024-01-30T04:49:13;96013.53;;;-0.72;94.31
56330;BME280;42236;48.058;10.632;2024-01-30T04:51:59;96017.19;;;-0.73;94.31
56330;BME280;42236;48.058;10.632;2024-01-30T04:54:45;96013.19;;;-0.76;94.57
56330;BME280;42236;48.058;10.632;2024-01-30T04:57:30;96016.06;;;-0.77;94.72
56330;BME280;42236;48.058;10.632;2024-01-30T05:00:17;96008.56;;;-0.80;95.36
56330;BME280;42236;48.058;10.632;2024-01-30T05:03:03;96009.63;;;-0.81;95.59
56330;BME280;42236;48.058;10.632;2024-01-30T05:05:49;95999.50;;;-0.84;95.74
56330;BME280;42236;48.058;10.632;2024-01-30T05:08:35;96003.75;;;-0.83;95.27
56330;BME280;42236;48.058;10.632;2024-01-30T05:11:23;96007.19;;;-0.83;94.54
56330;BME280;42236;48.058;10.632;2024-01-30T05:14:09;96004.31;;;-0.81;94.66
56330;BME280;42236;48.058;10.632;2024-01-30T05:16:56;96008.13;;;-0.77;94.06
56330;BME280;42236;48.058;10.632;2024-01-30T05:19:43;96008.34;;;-0.79;93.91
56330;BME280;42236;48.058;10.632;2024-01-30T05:22:29;96003.06;;;-0.79;94.13
56330;BME280;42236;48.058;10.632;2024-01-30T05:25:14;96006.50;;;-0.78;94.06
56330;BME280;42236;48.058;10.632;2024-01-30T05:28:00;96006.84;;;-0.75;93.93
56330;BME280;42236;48.058;10.632;2024-01-30T05:30:46;96013.75;;;-0.74;94.41
56330;BME280;42236;48.058;10.632;2024-01-30T05:33:31;96011.09;;;-0.74;94.27
56330;BME280;42236;48.058;10.632;2024-01-30T05:36:17;96014.53;;;-0.73;94.27
56330;BME280;42236;48.058;10.632;2024-01-30T05:39:03;96009.81;;;-0.71;94.49
56330;BME280;42236;48.058;10.632;2024-01-30T05:41:49;96027.31;;;-0.70;94.06
56330;BME280;42236;48.058;10.632;2024-01-30T05:44:34;96018.34;;;-0.69;94.47
56330;BME280;42236;48.058;10.632;2024-01-30T05:47:20;96022.03;;;-0.70;94.47
56330;BME280;42236;48.058;10.632;2024-01-30T05:50:06;96024.44;;;-0.69;94.48
56330;BME280;42236;48.058;10.632;2024-01-30T05:52:52;96032.16;;;-0.67;94.41
56330;BME280;42236;48.058;10.632;2024-01-30T05:55:38;96026.88;;;-0.67;93.83
56330;BME280;42236;48.058;10.632;2024-01-30T05:58:24;96030.09;;;-0.65;93.59
56330;BME280;42236;48.058;10.632;2024-01-30T06:01:09;96026.97;;;-0.62;93.19
56330;BME280;42236;48.058;10.632;2024-01-30T06:03:55;96038.13;;;-0.60;93.40
56330;BME280;42236;48.058;10.632;2024-01-30T06:06:41;96029.63;;;-0.62;93.83
56330;BME280;42236;48.058;10.632;2024-01-30T06:09:27;96027.53;;;-0.60;93.31
56330;BME280;42236;48.058;10.632;2024-01-30T06:12:21;96025.69;;;-0.59;92.97
56330;BME280;42236;48.058;10.632;2024-01-30T06:15:08;96034.78;;;-0.55;93.21
56330;BME280;42236;48.058;10.632;2024-01-30T06:17:53;96038.81;;;-0.53;92.72
56330;BME280;42236;48.058;10.632;2024-01-30T06:20:39;96029.00;;;-0.52;92.42
56330;BME280;42236;48.058;10.632;2024-01-30T06:23:25;96035.91;;;-0.51;92.51
56330;BME280;42236;48.058;10.632;2024-01-30T06:26:11;96026.94;;;-0.50;92.41
56330;BME280;42236;48.058;10.632;2024-01-30T06:28:56;96029.31;;;-0.49;92.44
56330;BME280;42236;48.058;10.632;2024-01-30T06:31:42;96032.56;;;-0.47;92.28
56330;BME280;42236;48.058;10.632;2024-01-30T06:34:29;96031.53;;;-0.46;92.47
56330;BME280;42236;48.058;10.632;2024-01-30T06:37:14;96036.84;;;-0.46;92.56
56330;BME280;42236;48.058;10.632;2024-01-30T06:40:00;96033.34;;;-0.46;92.57
56330;BME280;42236;48.058;10.632;2024-01-30T06:42:46;96031.53;;;-0.46;92.44
56330;BME280;42236;48.058;10.632;2024-01-30T06:45:31;96036.25;;;-0.48;92.53
56330;BME280;42236;48.058;10.632;2024-01-30T06:48:17;96030.38;;;-0.50;92.66
56330;BME280;42236;48.058;10.632;2024-01-30T06:51:03;96035.09;;;-0.52;92.97
56330;BME280;42236;48.058;10.632;2024-01-30T06:53:48;96041.47;;;-0.53;92.84
56330;BME280;42236;48.058;10.632;2024-01-30T06:56:34;96035.09;;;-0.52;92.76
56330;BME280;42236;48.058;10.632;2024-01-30T06:59:20;96037.53;;;-0.50;92.56
56330;BME280;42236;48.058;10.632;2024-01-30T07:02:05;96030.47;;;-0.45;92.34
56330;BME280;42236;48.058;10.632;2024-01-30T07:04:53;96035.88;;;-0.39;92.13
56330;BME280;42236;48.058;10.632;2024-01-30T07:07:38;96036.44;;;-0.37;91.88
56330;BME280;42236;48.058;10.632;2024-01-30T07:10:24;96033.88;;;-0.32;91.69
56330;BME280;42236;48.058;10.632;2024-01-30T07:13:12;96044.25;;;-0.31;91.66
56330;BME280;42236;48.058;10.632;2024-01-30T07:15:58;96040.34;;;-0.28;91.63
56330;BME280;42236;48.058;10.632;2024-01-30T07:18:44;96050.47;;;-0.25;91.83
56330;BME280;42236;48.058;10.632;2024-01-30T07:21:30;96043.88;;;-0.23;92.24
56330;BME280;42236;48.058;10.632;2024-01-30T07:24:16;96040.50;;;-0.18;92.06
56330;BME280;42236;48.058;10.632;2024-01-30T07:27:02;96052.28;;;-0.14;92.15
56330;BME280;42236;48.058;10.632;2024-01-30T07:29:47;96057.09;;;-0.11;92.42
56330;BME280;42236;48.058;10.632;2024-01-30T07:32:33;96054.53;;;-0.06;92.63
56330;BME280;42236;48.058;10.632;2024-01-30T07:35:19;96060.50;;;0.02;92.09
56330;BME280;42236;48.058;10.632;2024-01-30T07:38:04;96062.44;;;0.06;92.77
56330;BME280;42236;48.058;10.632;2024-01-30T07:40:50;96066.53;;;0.14;92.63
56330;BME280;42236;48.058;10.632;2024-01-30T07:43:38;96068.00;;;0.21;92.26
56330;BME280;42236;48.058;10.632;2024-01-30T07:46:24;96063.13;;;0.30;92.35
56330;BME280;42236;48.058;10.632;2024-01-30T07:49:09;96067.22;;;0.38;92.28
56330;BME280;42236;48.058;10.632;2024-01-30T07:51:55;96078.25;;;0.47;92.27
56330;BME280;42236;48.058;10.632;2024-01-30T07:54:41;96072.31;;;0.56;92.25
56330;BME280;42236;48.058;10.632;2024-01-30T07:57:27;96071.66;;;0.66;91.79
56330;BME280;42236;48.058;10.632;2024-01-30T08:00:13;96072.38;;;0.78;91.28
56330;BME280;42236;48.058;10.632;2024-01-30T08:02:59;96074.16;;;0.90;91.01
56330;BME280;42236;48.058;10.632;2024-01-30T08:05:45;96075.88;;;1.01;90.74
56330;BME280;42236;48.058;10.632;2024-01-30T08:08:33;96077.09;;;1.10;90.25
56330;BME280;42236;48.058;10.632;2024-01-30T08:11:23;96079.06;;;1.20;90.27
56330;BME280;42236;48.058;10.632;2024-01-30T08:14:14;96079.47;;;1.28;90.10
56330;BME280;42236;48.058;10.632;2024-01-30T08:17:00;96079.84;;;1.37;90.07
56330;BME280;42236;48.058;10.632;2024-01-30T08:19:46;96082.88;;;1.46;90.27
56330;BME280;42236;48.058;10.632;2024-01-30T08:22:32;96081.41;;;1.55;89.69
56330;BME280;42236;48.058;10.632;2024-01-30T08:25:18;96086.28;;;1.63;89.77
56330;BME280;42236;48.058;10.632;2024-01-30T08:28:04;96082.69;;;1.75;89.18
56330;BME280;42236;48.058;10.632;2024-01-30T08:30:50;96077.50;;;1.85;89.39
56330;BME280;42236;48.058;10.632;2024-01-30T08:33:35;96082.91;;;1.95;89.19
56330;BME280;42236;48.058;10.632;2024-01-30T08:36:21;96080.13;;;2.07;88.83
56330;BME280;42236;48.058;10.632;2024-01-30T08:39:09;96087.16;;;2.18;88.86
56330;BME280;42236;48.058;10.632;2024-01-30T08:41:55;96082.72;;;2.29;88.25
56330;BME280;42236;48.058;10.632;2024-01-30T08:44:41;96091.06;;;2.38;88.78
56330;BME280;42236;48.058;10.632;2024-01-30T08:47:27;96098.34;;;2.47;88.83
56330;BME280;42236;48.058;10.632;2024-01-30T08:50:13;96089.66;;;2.57;88.55
56330;BME280;42236;48.058;10.632;2024-01-30T08:52:58;96093.19;;;2.68;88.39
56330;BME280;42236;48.058;10.632;2024-01-30T08:55:45;96091.66;;;2.77;88.66
56330;BME280;42236;48.058;10.632;2024-01-30T08:58:30;96092.81;;;2.86;88.74
56330;BME280;42236;48.058;10.632;2024-01-30T09:01:16;96089.41;;;2.96;88.95
56330;BME280;42236;48.058;10.632;2024-01-30T09:04:02;96090.56;;;3.05;88.69
56330;BME280;42236;48.058;10.632;2024-01-30T09:06:48;96083.16;;;3.17;87.61
56330;BME280;42236;48.058;10.632;2024-01-30T09:09:34;96089.38;;;3.33;87.09
56330;BME280;42236;48.058;10.632;2024-01-30T09:12:20;96092.16;;;3.49;86.95
56330;BME280;42236;48.058;10.632;2024-01-30T09:15:06;96100.75;;;3.61;87.03
56330;BME280;42236;48.058;10.632;2024-01-30T09:17:52;96086.41;;;3.72;87.02
56330;BME280;42236;48.058;10.632;2024-01-30T09:20:37;96090.69;;;3.83;nan
56330;BME280;42236;48.058;10.632;2024-01-30T09:23:23;96095.25;;;3.93;87.04
56330;BME280;42236;48.058;10.632;2024-01-30T09:26:09;96091.56;;;4.04;87.11
56330;BME280;42236;48.058;10.632;2024-01-30T09:28:55;96094.00;;;4.16;86.66
56330;BME280;42236;48.058;10.632;2024-01-30T09:31:45;96094.31;;;4.30;86.12
56330;BME280;42236;48.058;10.632;2024-01-30T09:34:31;96089.53;;;4.47;85.52
56330;BME280;42236;48.058;10.632;2024-01-30T09:37:16;96101.31;;;4.62;85.16
56330;BME280;42236;48.058;10.632;2024-01-30T09:40:03;96093.03;;;4.74;84.97
56330;BME280;42236;48.058;10.632;2024-01-30T09:42:51;96099.16;;;4.89;85.01
56330;BME280;42236;48.058;10.632;2024-01-30T09:45:37;96097.81;;;5.02;84.95
56330;BME280;42236;48.058;10.632;2024-01-30T09:48:24;96105.31;;;5.16;83.93
56330;BME280;42236;48.058;10.632;2024-01-30T09:51:10;96100.47;;;5.33;83.10
56330;BME280;42236;48.058;10.632;2024-01-30T09:53:57;96106.31;;;5.50;82.65
56330;BME280;42236;48.058;10.632;2024-01-30T09:56:42;96101.97;;;5.65;83.38
56330;BME280;42236;48.058;10.632;2024-01-30T09:59:28;96102.47;;;5.82;82.65
56330;BME280;42236;48.058;10.632;2024-01-30T10:02:14;96097.09;;;5.97;82.61
56330;BME280;42236;48.058;10.632;2024-01-30T10:05:00;96107.72;;;6.13;81.58
56330;BME280;42236;48.058;10.632;2024-01-30T10:07:53;96100.69;;;6.27;80.43
56330;BME280;42236;48.058;10.632;2024-01-30T10:10:39;96100.09;;;6.35;81.86
56330;BME280;42236;48.058;10.632;2024-01-30T10:13:25;96099.25;;;6.40;82.20
56330;BME280;42236;48.058;10.632;2024-01-30T10:16:14;96099.25;;;6.45;82.06
56330;BME280;42236;48.058;10.632;2024-01-30T10:19:00;96092.75;;;6.51;82.13
56330;BME280;42236;48.058;10.632;2024-01-30T10:21:46;96096.72;;;6.59;81.64
56330;BME280;42236;48.058;10.632;2024-01-30T10:24:35;96097.75;;;6.68;80.98
56330;BME280;42236;48.058;10.632;2024-01-30T10:27:27;96094.16;;;6.83;79.70
56330;BME280;42236;48.058;10.632;2024-01-30T10:30:33;96082.50;;;6.98;76.70
56330;BME280;42236;48.058;10.632;2024-01-30T10:37:19;96081.38;;;7.33;80.67
56330;BME280;42236;48.058;10.632;2024-01-30T10:40:08;96072.88;;;7.50;80.14
56330;BME280;42236;48.058;10.632;2024-01-30T10:42:55;96072.47;;;7.62;79.37
56330;BME280;42236;48.058;10.632;2024-01-30T10:45:47;96068.56;;;7.73;79.58
56330;BME280;42236;48.058;10.632;2024-01-30T10:48:36;96066.06;;;7.82;80.31
56330;BME280;42236;48.058;10.632;2024-01-30T10:51:24;96053.03;;;7.94;80.36
56330;BME280;42236;48.058;10.632;2024-01-30T10:54:17;96056.59;;;8.08;78.75
56330;BME280;42236;48.058;10.632;2024-01-30T10:57:04;96054.78;;;8.23;78.94
56330;BME280;42236;48.058;10.632;2024-01-30T10:59:53;96059.47;;;8.36;78.01
56330;BME280;42236;48.058;10.632;2024-01-30T11:02:42;96055.53;;;8.47;76.80
56330;BME280;42236;48.058;10.632;2024-01-30T11:05:29;96063.97;;;8.60;77.98
56330;BME280;42236;48.058;10.632;2024-01-30T11:08:15;96062.72;;;8.71;77.65
56330;BME280;42236;48.058;10.632;2024-01-30T11:11:09;96057.50;;;8.80;77.77
56330;BME280;42236;48.058;10.632;2024-01-30T11:13:55;96071.56;;;8.90;77.71
56330;BME280;42236;48.058;10.632;2024-01-30T11:16:40;96061.75;;;9.00;77.47
56330;BME280;42236;48.058;10.632;2024-01-30T11:19:27;96062.16;;;9.07;77.57
56330;BME280;42236;48.058;10.632;2024-01-30T11:22:12;96056.09;;;9.15;77.80
56330;BME280;42236;48.058;10.632;2024-01-30T11:24:58;96053.00;;;9.22;77.49
56330;BME280;42236;48.058;10.632;2024-01-30T11:27:45;96054.72;;;9.31;76.79
56330;BME280;42236;48.058;10.632;2024-01-30T11:30:32;96055.03;;;9.44;76.00
56330;BME280;42236;48.058;10.632;2024-01-30T11:33:30;96057.66;;;9.63;67.01
56330;BME280;42236;48.058;10.632;2024-01-30T11:36:16;96049.75;;;9.80;72.12
56330;BME280;42236;48.058;10.632;2024-01-30T11:39:02;96051.94;;;9.92;71.55
56330;BME280;42236;48.058;10.632;2024-01-30T11:41:50;96047.47;;;10.01;69.70
56330;BME280;42236;48.058;10.632;2024-01-30T11:44:37;96041.94;;;10.06;69.68
56330;BME280;42236;48.058;10.632;2024-01-30T11:47:23;96037.84;;;10.09;69.17
56330;BME280;42236;48.058;10.632;2024-01-30T11:50:09;96042.34;;;10.13;69.60
56330;BME280;42236;48.058;10.632;2024-01-30T11:52:56;96032.84;;;10.16;68.86
56330;BME280;42236;48.058;10.632;2024-01-30T11:55:49;96035.44;;;10.21;68.03
56330;BME280;42236;48.058;10.632;2024-01-30T11:58:35;96030.25;;;10.24;68.07
56330;BME280;42236;48.058;10.632;2024-01-30T12:01:20;96025.84;;;10.29;68.65
56330;BME280;42236;48.058;10.632;2024-01-30T12:04:07;96024.44;;;10.31;67.98
56330;BME280;42236;48.058;10.632;2024-01-30T12:06:56;96022.84;;;10.30;68.14
56330;BME280;42236;48.058;10.632;2024-01-30T12:09:42;96022.06;;;10.30;67.33
56330;BME280;42236;48.058;10.632;2024-01-30T12:12:28;96023.03;;;10.34;67.95
56330;BME280;42236;48.058;10.632;2024-01-30T12:15:15;96021.34;;;10.38;68.33
56330;BME280;42236;48.058;10.632;2024-01-30T12:18:05;96020.13;;;10.44;67.87
56330;BME280;42236;48.058;10.632;2024-01-30T12:20:58;96020.59;;;10.46;65.30
56330;BME280;42236;48.058;10.632;2024-01-30T12:23:45;96020.59;;;10.46;65.83
56330;BME280;42236;48.058;10.632;2024-01-30T12:26:30;96010.41;;;10.43;63.74
56330;BME280;42236;48.058;10.632;2024-01-30T12:29:16;96009.13;;;10.40;63.10
56330;BME280;42236;48.058;10.632;2024-01-30T12:32:02;96015.81;;;10.43;62.90
56330;BME280;42236;48.058;10.632;2024-01-30T12:34:48;96012.03;;;10.44;62.71
56330;BME280;42236;48.058;10.632;2024-01-30T12:37:34;96012.81;;;10.44;62.92
56330;BME280;42236;48.058;10.632;2024-01-30T12:40:19;96009.34;;;10.44;62.63
56330;BME280;42236;48.058;10.632;2024-01-30T12:43:05;96010.13;;;10.44;62.83
56330;BME280;42236;48.058;10.632;2024-01-30T12:45:52;96010.50;;;10.52;62.78
56330;BME280;42236;48.058;10.632;2024-01-30T12:48:38;96006.56;;;10.58;62.72
56330;BME280;42236;48.058;10.632;2024-01-30T12:51:24;96005.16;;;10.60;61.88
56330;BME280;42236;48.058;10.632;2024-01-30T12:54:09;96012.78;;;10.58;61.79
56330;BME280;42236;48.058;10.632;2024-01-30T12:56:55;96005.78;;;10.57;61.29
56330;BME280;42236;48.058;10.632;2024-01-30T12:59:43;96009.75;;;10.60;61.77
56330;BME280;42236;48.058;10.632;2024-01-30T13:02:29;96002.94;;;10.62;61.62
56330;BME280;42236;48.058;10.632;2024-01-30T13:05:20;96014.25;;;10.64;61.67
56330;BME280;42236;48.058;10.632;2024-01-30T13:08:06;96007.13;;;10.68;62.05
56330;BME280;42236;48.058;10.632;2024-01-30T13:10:51;96001.31;;;10.75;61.98
56330;BME280;42236;48.058;10.632;2024-01-30T13:13:38;96004.19;;;10.79;61.87
56330;BME280;42236;48.058;10.632;2024-01-30T13:16:23;96000.34;;;10.80;60.83
56330;BME280;42236;48.058;10.632;2024-01-30T13:19:09;96001.47;;;10.79;60.78
56330;BME280;42236;48.058;10.632;2024-01-30T13:21:57;96011.16;;;10.80;60.72
56330;BME280;42236;48.058;10.632;2024-01-30T13:24:43;96004.66;;;10.81;60.24
56330;BME280;42236;48.058;10.632;2024-01-30T13:27:29;96007.03;;;10.82;60.35
56330;BME280;42236;48.058;10.632;2024-01-30T13:30:15;96000.25;;;10.85;60.19
56330;BME280;42236;48.058;10.632;2024-01-30T13:33:00;96015.84;;;10.88;60.12
56330;BME280;42236;48.058;10.632;2024-01-30T13:35:46;96010.44;;;10.88;60.05
56330;BME280;42236;48.058;10.632;2024-01-30T13:38:32;96012.81;;;10.89;59.64
56330;BME280;42236;48.058;10.632;2024-01-30T13:41:17;96012.81;;;10.89;59.58
56330;BME280;42236;48.058;10.632;2024-01-30T13:44:03;96010.09;;;10.89;59.92
56330;BME280;42236;48.058;10.632;2024-01-30T13:46:49;96006.63;;;10.89;60.16
56330;BME280;42236;48.058;10.632;2024-01-30T13:49:35;96011.53;;;10.87;60.32
56330;BME280;42236;48.058;10.632;2024-01-30T13:52:21;96010.84;;;10.81;60.77
56330;BME280;42236;48.058;10.632;2024-01-30T13:55:07;96014.47;;;10.77;60.81
56330;BME280;42236;48.058;10.632;2024-01-30T13:57:53;96015.09;;;10.74;61.06
56330;BME280;42236;48.058;10.632;2024-01-30T14:00:38;96019.00;;;10.67;61.49
56330;BME280;42236;48.058;10.632;2024-01-30T14:03:24;96015.94;;;10.60;61.63
56330;BME280;42236;48.058;10.632;2024-01-30T14:06:11;96017.69;;;10.56;61.89
56330;BME280;42236;48.058;10.632;2024-01-30T14:08:56;96012.56;;;10.55;62.23
56330;BME280;42236;48.058;10.632;2024-01-30T14:11:43;96024.78;;;10.52;62.63
56330;BME280;42236;48.058;10.632;2024-01-30T14:14:29;96021.59;;;10.50;62.47
56330;BME280;42236;48.058;10.632;2024-01-30T14:17:15;96014.91;;;10.48;62.48
56330;BME280;42236;48.058;10.632;2024-01-30T14:20:02;96018.50;;;10.43;62.82
56330;BME280;42236;48.058;10.632;2024-01-30T14:22:48;96027.72;;;10.42;62.73
56330;BME280;42236;48.058;10.632;2024-01-30T14:25:34;96028.81;;;10.41;62.35
56330;BME280;42236;48.058;10.632;2024-01-30T14:28:19;96024.81;;;10.38;61.88
56330;BME280;42236;48.058;10.632;2024-01-30T14:31:05;96030.03;;;10.35;62.11
56330;BME280;42236;48.058;10.632;2024-01-30T14:33:52;96032.84;;;10.30;60.95
56330;BME280;42236;48.058;10.632;2024-01-30T14:36:38;96027.47;;;10.30;62.07